createdAt,value
2018-08-03T00:00:58.252Z,24.27
2018-08-03T00:01:58.261Z,24.21
2018-08-03T00:02:58.243Z,24.31
2018-08-03T00:03:58.260Z,24.24
2018-08-03T00:04:58.254Z,24.24
2018-08-03T00:05:58.263Z,24.16
2018-08-03T00:06:58.280Z,24.16
2018-08-03T00:07:58.275Z,24.16
2018-08-03T00:08:58.303Z,24.20
2018-08-03T00:09:58.294Z,24.22
2018-08-03T00:10:58.303Z,24.15
2018-08-03T00:11:58.324Z,24.15
2018-08-03T00:12:58.304Z,24.18
2018-08-03T00:13:58.295Z,24.22
2018-08-03T00:14:58.319Z,24.10
2018-08-03T00:15:58.314Z,24.10
2018-08-03T00:16:58.305Z,24.08
2018-08-03T00:17:58.315Z,24.06
2018-08-03T00:18:58.318Z,24.03
2018-08-03T00:19:58.377Z,23.97
2018-08-03T00:20:58.335Z,23.88
2018-08-03T00:21:58.387Z,23.95
2018-08-03T00:22:58.344Z,23.88
2018-08-03T00:23:58.406Z,23.87
2018-08-03T00:24:58.411Z,23.84
2018-08-03T00:25:58.353Z,23.70
2018-08-03T00:26:58.396Z,23.73
2018-08-03T00:27:58.372Z,23.69
2018-08-03T00:28:58.392Z,23.73
2018-08-03T00:29:58.432Z,23.83
2018-08-03T00:30:58.428Z,23.72
2018-08-03T00:31:58.401Z,23.79
2018-08-03T00:32:58.392Z,23.69
2018-08-03T00:33:58.396Z,23.66
2018-08-03T00:34:58.407Z,23.68
2018-08-03T00:35:58.397Z,23.65
2018-08-03T00:36:58.425Z,23.79
2018-08-03T00:37:58.416Z,23.65
2018-08-03T00:38:58.416Z,23.65
2018-08-03T00:39:58.420Z,23.66
2018-08-03T00:40:58.421Z,23.65
2018-08-03T00:41:58.454Z,23.61
2018-08-03T00:42:58.475Z,23.58
2018-08-03T00:43:58.505Z,23.55
2018-08-03T00:44:58.479Z,23.63
2018-08-03T00:45:58.513Z,23.58
2018-08-03T00:46:58.469Z,23.58
2018-08-03T00:47:58.498Z,23.72
2018-08-03T00:48:58.476Z,23.63
2018-08-03T00:49:58.575Z,23.66
2018-08-03T00:50:58.470Z,23.60
2018-08-03T00:51:58.493Z,23.73
2018-08-03T00:52:58.478Z,23.60
2018-08-03T00:53:58.488Z,23.61
2018-08-03T00:54:58.488Z,23.63
2018-08-03T00:55:58.488Z,23.57
2018-08-03T00:56:58.507Z,23.54
2018-08-03T00:57:58.492Z,23.55
2018-08-03T00:58:58.507Z,23.54
2018-08-03T00:59:58.512Z,23.48
2018-08-03T01:00:58.586Z,23.53
2018-08-03T01:01:58.521Z,23.43
2018-08-03T01:02:58.601Z,23.46
2018-08-03T01:03:58.529Z,23.47
2018-08-03T01:04:58.525Z,23.46
2018-08-03T01:05:58.542Z,23.48
2018-08-03T01:06:58.543Z,23.46
2018-08-03T01:07:58.553Z,23.28
2018-08-03T01:08:58.547Z,23.22
2018-08-03T01:09:58.672Z,23.12
2018-08-03T01:10:58.587Z,23.10
2018-08-03T01:11:58.579Z,23.07
2018-08-03T01:12:58.662Z,23.12
2018-08-03T01:13:58.570Z,23.12
2018-08-03T01:14:58.565Z,23.12
2018-08-03T01:15:58.572Z,23.13
2018-08-03T01:16:58.580Z,23.16
2018-08-03T01:17:58.695Z,23.19
2018-08-03T01:18:58.613Z,23.20
2018-08-03T01:19:58.590Z,23.22
2018-08-03T01:20:58.587Z,23.22
2018-08-03T01:21:58.622Z,23.19
2018-08-03T01:22:58.597Z,23.19
2018-08-03T01:23:58.607Z,23.20
2018-08-03T01:24:58.628Z,23.22
2018-08-03T01:25:58.612Z,23.22
2018-08-03T01:26:58.649Z,23.15
2018-08-03T01:27:58.621Z,23.07
2018-08-03T01:28:58.638Z,23.05
2018-08-03T01:29:58.639Z,23.09
2018-08-03T01:30:58.706Z,23.02
2018-08-03T01:31:58.633Z,23.04
2018-08-03T01:32:58.658Z,23.02
2018-08-03T01:33:58.645Z,23.04
2018-08-03T01:34:58.673Z,22.98
2018-08-03T01:35:58.661Z,23.09
2018-08-03T01:36:58.672Z,23.01
2018-08-03T01:37:58.758Z,23.00
2018-08-03T01:38:58.690Z,22.95
2018-08-03T01:39:58.686Z,23.05
2018-08-03T01:40:58.675Z,22.94
2018-08-03T01:41:58.685Z,23.04
2018-08-03T01:42:58.695Z,22.97
2018-08-03T01:43:58.698Z,22.94
2018-08-03T01:44:58.727Z,22.82
2018-08-03T01:45:58.705Z,22.88
2018-08-03T01:46:58.702Z,22.82
2018-08-03T01:47:58.721Z,22.83
2018-08-03T01:48:58.708Z,22.83
2018-08-03T01:49:58.740Z,22.80
2018-08-03T01:50:58.725Z,22.86
2018-08-03T01:51:58.791Z,22.80
2018-08-03T01:52:58.765Z,22.73
2018-08-03T01:53:58.752Z,22.83
2018-08-03T01:54:58.731Z,22.76
2018-08-03T01:55:58.756Z,22.73
2018-08-03T01:56:58.745Z,22.65
2018-08-03T01:57:58.789Z,22.61
2018-08-03T01:58:58.777Z,22.58
2018-08-03T01:59:58.754Z,22.61
2018-08-03T02:00:58.773Z,22.58
2018-08-03T02:01:58.778Z,22.62
2018-08-03T02:02:58.790Z,22.64
2018-08-03T02:03:58.770Z,22.67
2018-08-03T02:04:58.781Z,22.62
2018-08-03T02:05:58.783Z,22.64
2018-08-03T02:06:58.828Z,22.62
2018-08-03T02:07:58.804Z,22.64
2018-08-03T02:08:58.793Z,22.57
2018-08-03T02:09:58.832Z,22.70
2018-08-03T02:10:58.805Z,22.55
2018-08-03T02:11:59.608Z,22.60
2018-08-03T02:13:00.081Z,22.52
2018-08-03T02:13:58.833Z,22.52
2018-08-03T02:14:58.829Z,22.49
2018-08-03T02:15:58.855Z,22.43
2018-08-03T02:16:58.832Z,22.47
2018-08-03T02:17:58.892Z,22.43
2018-08-03T02:18:58.831Z,22.45
2018-08-03T02:19:58.838Z,22.43
2018-08-03T02:20:58.871Z,22.37
2018-08-03T02:21:59.589Z,22.46
2018-08-03T02:22:58.861Z,22.46
2018-08-03T02:23:58.861Z,22.46
2018-08-03T02:24:58.862Z,22.43
2018-08-03T02:25:58.877Z,22.42
2018-08-03T02:26:58.861Z,22.40
2018-08-03T02:27:58.912Z,22.35
2018-08-03T02:28:58.920Z,22.36
2018-08-03T02:29:58.909Z,22.27
2018-08-03T02:30:58.881Z,22.27
2018-08-03T02:31:58.890Z,22.31
2018-08-03T02:32:58.901Z,22.37
2018-08-03T02:33:58.897Z,22.27
2018-08-03T02:34:58.968Z,22.35
2018-08-03T02:35:58.908Z,22.18
2018-08-03T02:36:58.904Z,22.20
2018-08-03T02:37:58.924Z,22.20
2018-08-03T02:38:58.928Z,22.21
2018-08-03T02:39:58.973Z,22.18
2018-08-03T02:40:58.955Z,22.18
2018-08-03T02:41:58.928Z,22.07
2018-08-03T02:42:58.926Z,22.15
2018-08-03T02:43:58.955Z,22.20
2018-08-03T02:44:58.942Z,22.18
2018-08-03T02:45:58.949Z,22.09
2018-08-03T02:46:58.951Z,22.17
2018-08-03T02:47:59.599Z,22.18
2018-08-03T02:48:58.959Z,22.17
2018-08-03T02:49:58.994Z,22.14
2018-08-03T02:50:58.991Z,22.10
2018-08-03T02:51:59.008Z,22.10
2018-08-03T02:52:58.992Z,22.15
2018-08-03T02:53:59.005Z,22.18
2018-08-03T02:54:58.980Z,22.12
2018-08-03T02:55:58.989Z,22.14
2018-08-03T02:56:59.005Z,22.03
2018-08-03T02:57:58.987Z,22.05
2018-08-03T02:58:59.055Z,22.06
2018-08-03T02:59:59.000Z,22.10
2018-08-03T03:00:59.015Z,22.02
2018-08-03T03:01:58.997Z,22.03
2018-08-03T03:02:59.145Z,22.03
2018-08-03T03:03:59.026Z,21.92
2018-08-03T03:04:59.028Z,22.05
2018-08-03T03:05:59.029Z,22.07
2018-08-03T03:06:59.018Z,21.92
2018-08-03T03:07:59.038Z,21.90
2018-08-03T03:08:59.057Z,21.98
2018-08-03T03:09:59.048Z,21.94
2018-08-03T03:10:59.054Z,21.88
2018-08-03T03:11:59.078Z,21.96
2018-08-03T03:12:59.078Z,21.90
2018-08-03T03:13:59.069Z,21.99
2018-08-03T03:14:59.086Z,21.94
2018-08-03T03:15:59.162Z,22.09
2018-08-03T03:16:59.093Z,22.03
2018-08-03T03:17:59.082Z,22.02
2018-08-03T03:18:59.082Z,21.99
2018-08-03T03:19:59.102Z,22.06
2018-08-03T03:20:59.091Z,21.94
2018-08-03T03:21:59.075Z,21.91
2018-08-03T03:22:59.079Z,21.92
2018-08-03T03:23:59.080Z,21.92
2018-08-03T03:24:59.183Z,21.96
2018-08-03T03:25:59.113Z,21.91
2018-08-03T03:26:59.115Z,21.91
2018-08-03T03:27:59.117Z,21.92
2018-08-03T03:28:59.153Z,21.90
2018-08-03T03:29:59.113Z,21.91
2018-08-03T03:30:59.109Z,21.86
2018-08-03T03:31:59.118Z,21.88
2018-08-03T03:32:59.143Z,21.74
2018-08-03T03:33:59.127Z,21.77
2018-08-03T03:34:59.129Z,21.74
2018-08-03T03:35:59.136Z,21.86
2018-08-03T03:36:59.161Z,21.83
2018-08-03T03:37:59.164Z,21.75
2018-08-03T03:38:59.234Z,21.83
2018-08-03T03:39:59.193Z,21.84
2018-08-03T03:40:59.187Z,21.82
2018-08-03T03:41:59.181Z,21.86
2018-08-03T03:42:59.153Z,21.77
2018-08-03T03:43:59.172Z,21.79
2018-08-03T03:44:59.171Z,21.74
2018-08-03T03:45:59.178Z,21.69
2018-08-03T03:46:59.185Z,21.75
2018-08-03T03:47:59.193Z,21.79
2018-08-03T03:48:59.255Z,21.72
2018-08-03T03:49:59.227Z,21.69
2018-08-03T03:50:59.232Z,21.68
2018-08-03T03:51:59.216Z,21.58
2018-08-03T03:52:59.203Z,21.52
2018-08-03T03:53:59.209Z,21.58
2018-08-03T03:54:59.203Z,21.62
2018-08-03T03:55:59.220Z,21.59
2018-08-03T03:56:59.296Z,21.62
2018-08-03T03:57:59.252Z,21.62
2018-08-03T03:58:59.266Z,21.59
2018-08-03T03:59:59.230Z,21.67
2018-08-03T04:00:59.362Z,21.59
2018-08-03T04:01:59.236Z,21.68
2018-08-03T04:02:59.260Z,21.64
2018-08-03T04:03:59.277Z,21.61
2018-08-03T04:04:59.240Z,21.65
2018-08-03T04:05:59.261Z,21.67
2018-08-03T04:06:59.292Z,21.67
2018-08-03T04:07:59.297Z,21.75
2018-08-03T04:08:59.280Z,21.68
2018-08-03T04:09:59.305Z,21.68
2018-08-03T04:10:59.315Z,21.67
2018-08-03T04:11:59.294Z,21.69
2018-08-03T04:12:59.280Z,21.72
2018-08-03T04:13:59.290Z,21.75
2018-08-03T04:14:59.277Z,21.74
2018-08-03T04:15:59.292Z,21.77
2018-08-03T04:16:59.329Z,21.74
2018-08-03T04:17:59.305Z,21.67
2018-08-03T04:18:59.296Z,21.77
2018-08-03T04:20:00.141Z,21.68
2018-08-03T04:20:59.352Z,21.77
2018-08-03T04:21:59.326Z,21.75
2018-08-03T04:22:59.316Z,21.79
2018-08-03T04:23:59.301Z,21.90
2018-08-03T04:24:59.313Z,21.86
2018-08-03T04:25:59.320Z,21.91
2018-08-03T04:26:59.318Z,21.90
2018-08-03T04:27:59.348Z,21.92
2018-08-03T04:28:59.335Z,21.91
2018-08-03T04:29:59.344Z,21.90
2018-08-03T04:30:59.363Z,21.88
2018-08-03T04:31:59.340Z,21.86
2018-08-03T04:32:59.412Z,21.90
2018-08-03T04:33:59.373Z,21.91
2018-08-03T04:34:59.380Z,21.90
2018-08-03T04:35:59.393Z,21.92
2018-08-03T04:36:59.380Z,22.00
2018-08-03T04:37:59.367Z,21.99
2018-08-03T04:38:59.457Z,21.96
2018-08-03T04:39:59.428Z,21.99
2018-08-03T04:40:59.398Z,22.05
2018-08-03T04:41:59.402Z,22.05
2018-08-03T04:42:59.389Z,22.15
2018-08-03T04:43:59.411Z,22.05
2018-08-03T04:44:59.409Z,22.12
2018-08-03T04:45:59.396Z,22.14
2018-08-03T04:46:59.432Z,22.17
2018-08-03T04:47:59.418Z,22.17
2018-08-03T04:48:59.436Z,22.17
2018-08-03T04:49:59.427Z,22.15
2018-08-03T04:50:59.443Z,22.06
2018-08-03T04:51:59.449Z,22.18
2018-08-03T04:52:59.457Z,22.17
2018-08-03T04:53:59.434Z,22.12
2018-08-03T04:54:59.434Z,22.14
2018-08-03T04:55:59.437Z,22.14
2018-08-03T04:56:59.454Z,22.24
2018-08-03T04:57:59.444Z,22.22
2018-08-03T04:58:59.492Z,22.36
2018-08-03T04:59:59.454Z,22.36
2018-08-03T05:00:59.574Z,22.47
2018-08-03T05:01:59.511Z,22.42
2018-08-03T05:02:59.528Z,22.60
2018-08-03T05:03:59.498Z,22.52
2018-08-03T05:04:59.488Z,22.49
2018-08-03T05:05:59.488Z,22.58
2018-08-03T05:06:59.490Z,22.62
2018-08-03T05:07:59.508Z,22.67
2018-08-03T05:08:59.530Z,22.62
2018-08-03T05:09:59.501Z,22.60
2018-08-03T05:10:59.523Z,22.62
2018-08-03T05:11:59.662Z,22.72
2018-08-03T05:12:59.524Z,22.75
2018-08-03T05:14:00.220Z,22.80
2018-08-03T05:14:59.512Z,22.77
2018-08-03T05:15:59.505Z,22.76
2018-08-03T05:16:59.546Z,22.85
2018-08-03T05:17:59.512Z,22.83
2018-08-03T05:18:59.529Z,22.86
2018-08-03T05:19:59.542Z,22.97
2018-08-03T05:20:59.530Z,22.98
2018-08-03T05:21:59.522Z,22.94
2018-08-03T05:22:59.590Z,23.07
2018-08-03T05:23:59.531Z,23.12
2018-08-03T05:24:59.553Z,23.16
2018-08-03T05:25:59.541Z,23.20
2018-08-03T05:26:59.621Z,23.23
2018-08-03T05:27:59.614Z,23.32
2018-08-03T05:29:01.982Z,23.28
2018-08-03T05:31:31.710Z,23.51
2018-08-03T05:32:31.685Z,23.60
2018-08-03T05:33:31.694Z,23.60
2018-08-03T05:34:31.694Z,23.68
2018-08-03T05:35:31.722Z,23.76
2018-08-03T05:36:31.711Z,23.66
2018-08-03T05:37:31.703Z,23.70
2018-08-03T05:38:31.724Z,23.78
2018-08-03T05:39:31.719Z,23.90
2018-08-03T05:40:31.712Z,23.95
2018-08-03T05:41:31.732Z,24.02
2018-08-03T05:42:31.760Z,24.18
2018-08-03T05:43:31.756Z,24.67
2018-08-03T05:44:31.730Z,25.57
2018-08-03T05:45:31.754Z,26.63
2018-08-03T05:46:31.748Z,27.40
2018-08-03T05:47:31.763Z,28.17
2018-08-03T05:48:31.766Z,28.89
2018-08-03T05:49:31.760Z,29.39
2018-08-03T05:50:31.764Z,29.79
2018-08-03T05:51:31.771Z,29.78
2018-08-03T05:52:31.842Z,29.60
2018-08-03T05:53:31.772Z,29.89
2018-08-03T05:54:31.777Z,30.24
2018-08-03T05:55:31.785Z,30.22
2018-08-03T05:56:31.795Z,29.58
2018-08-03T05:57:31.799Z,29.61
2018-08-03T05:58:32.662Z,30.10
2018-08-03T05:59:31.818Z,29.95
2018-08-03T06:00:31.823Z,30.17
2018-08-03T06:01:31.824Z,30.05
2018-08-03T06:02:31.836Z,30.26
2018-08-03T06:03:31.836Z,30.67
2018-08-03T06:04:31.853Z,30.64
2018-08-03T06:05:31.853Z,30.24
2018-08-03T06:06:31.867Z,30.27
2018-08-03T06:07:31.865Z,30.26
2018-08-03T06:08:31.898Z,30.10
2018-08-03T06:09:31.887Z,30.55
2018-08-03T06:10:31.895Z,30.79
2018-08-03T06:11:31.915Z,31.13
2018-08-03T06:12:31.923Z,30.84
2018-08-03T06:13:31.911Z,31.02
2018-08-03T06:14:31.944Z,31.31
2018-08-03T06:15:31.927Z,31.70
2018-08-03T06:16:31.939Z,31.72
2018-08-03T06:17:31.941Z,31.68
2018-08-03T06:18:31.955Z,31.50
2018-08-03T06:19:31.957Z,31.09
2018-08-03T06:20:31.987Z,31.38
2018-08-03T06:21:31.978Z,31.58
2018-08-03T06:22:32.015Z,32.01
2018-08-03T06:23:31.999Z,31.26
2018-08-03T06:24:32.000Z,30.99
2018-08-03T06:25:32.014Z,30.62
2018-08-03T06:26:32.683Z,31.01
2018-08-03T06:27:32.070Z,31.31
2018-08-03T06:28:32.100Z,31.89
2018-08-03T06:29:32.076Z,32.48
2018-08-03T06:30:32.073Z,32.79
2018-08-03T06:31:32.065Z,32.50
2018-08-03T06:32:32.080Z,32.38
2018-08-03T06:33:32.090Z,32.03
2018-08-03T06:34:32.101Z,32.50
2018-08-03T06:35:32.108Z,32.25
2018-08-03T06:36:32.207Z,31.95
2018-08-03T06:37:32.134Z,31.56
2018-08-03T06:38:32.137Z,31.76
2018-08-03T06:39:32.156Z,31.68
2018-08-03T06:40:32.166Z,31.47
2018-08-03T06:41:32.175Z,31.16
2018-08-03T06:42:32.190Z,31.21
2018-08-03T06:43:32.215Z,31.51
2018-08-03T06:44:32.217Z,31.48
2018-08-03T06:45:32.219Z,31.75
2018-08-03T06:46:33.194Z,32.04
2018-08-03T06:47:32.260Z,32.45
2018-08-03T06:48:32.316Z,32.48
2018-08-03T06:49:32.336Z,32.84
2018-08-03T06:50:32.275Z,32.38
2018-08-03T06:51:32.283Z,32.44
2018-08-03T06:52:32.316Z,33.15
2018-08-03T06:53:32.335Z,33.16
2018-08-03T06:54:32.324Z,33.45
2018-08-03T06:55:32.344Z,33.41
2018-08-03T06:56:32.345Z,33.51
2018-08-03T06:57:32.377Z,33.29
2018-08-03T06:58:32.406Z,33.38
2018-08-03T06:59:32.506Z,32.89
2018-08-03T07:00:32.403Z,32.52
2018-08-03T07:01:32.391Z,32.92
2018-08-03T07:02:32.430Z,32.79
2018-08-03T07:03:32.440Z,32.97
2018-08-03T07:04:32.500Z,32.72
2018-08-03T07:05:32.463Z,33.11
2018-08-03T07:06:32.472Z,33.28
2018-08-03T07:07:32.482Z,33.49
2018-08-03T07:08:32.976Z,33.12
2018-08-03T07:09:32.514Z,33.50
2018-08-03T07:10:32.529Z,33.78
2018-08-03T07:11:32.534Z,33.87
2018-08-03T07:12:32.551Z,34.00
2018-08-03T07:13:32.546Z,33.93
2018-08-03T07:14:33.286Z,34.39
2018-08-03T07:15:32.610Z,34.49
2018-08-03T07:16:32.607Z,34.91
2018-08-03T07:17:32.623Z,35.44
2018-08-03T07:18:32.633Z,36.00
2018-08-03T07:19:32.680Z,35.72
2018-08-03T07:20:32.765Z,35.16
2018-08-03T07:21:32.680Z,33.86
2018-08-03T07:22:32.692Z,33.88
2018-08-03T07:23:32.695Z,34.15
2018-08-03T07:24:33.219Z,34.03
2018-08-03T07:25:32.733Z,34.91
2018-08-03T07:26:32.745Z,35.65
2018-08-03T07:27:32.823Z,35.40
2018-08-03T07:28:32.767Z,35.22
2018-08-03T07:29:32.796Z,34.78
2018-08-03T07:30:32.807Z,34.77
2018-08-03T07:31:32.840Z,35.81
2018-08-03T07:32:32.846Z,36.09
2018-08-03T07:33:32.853Z,35.97
2018-08-03T07:34:32.876Z,35.90
2018-08-03T07:35:32.869Z,36.27
2018-08-03T07:36:32.882Z,35.82
2018-08-03T07:37:32.983Z,35.14
2018-08-03T07:38:32.910Z,33.86
2018-08-03T07:39:33.164Z,33.93
2018-08-03T07:40:33.729Z,34.31
2018-08-03T07:41:32.978Z,35.22
2018-08-03T07:42:32.981Z,34.58
2018-08-03T07:43:33.077Z,34.53
2018-08-03T07:44:33.046Z,35.43
2018-08-03T07:45:33.063Z,36.09
2018-08-03T07:46:33.065Z,36.72
2018-08-03T07:47:33.062Z,35.18
2018-08-03T07:48:33.089Z,35.23
2018-08-03T07:49:33.084Z,35.59
2018-08-03T07:50:33.104Z,35.55
2018-08-03T07:51:33.113Z,35.74
2018-08-03T07:52:33.220Z,35.48
2018-08-03T07:53:33.161Z,35.50
2018-08-03T07:54:33.165Z,35.80
2018-08-03T07:55:33.199Z,35.82
2018-08-03T07:56:33.205Z,35.96
2018-08-03T07:57:33.238Z,35.60
2018-08-03T07:58:33.246Z,35.66
2018-08-03T07:59:33.267Z,35.82
2018-08-03T08:00:33.261Z,36.13
2018-08-03T08:01:33.279Z,35.74
2018-08-03T08:02:34.250Z,35.63
2018-08-03T08:03:33.315Z,35.78
2018-08-03T08:04:33.343Z,36.29
2018-08-03T08:05:33.346Z,36.88
2018-08-03T08:06:33.361Z,36.71
2018-08-03T08:07:33.400Z,36.64
2018-08-03T08:08:33.397Z,36.85
2018-08-03T08:09:33.431Z,36.91
2018-08-03T08:10:34.248Z,36.87
2018-08-03T08:11:33.451Z,36.87
2018-08-03T08:12:33.484Z,36.88
2018-08-03T08:13:33.474Z,35.22
2018-08-03T08:14:33.509Z,35.56
2018-08-03T08:15:33.528Z,35.97
2018-08-03T08:16:33.543Z,36.22
2018-08-03T08:17:33.572Z,36.17
2018-08-03T08:18:33.578Z,36.50
2018-08-03T08:19:33.616Z,36.51
2018-08-03T08:20:33.613Z,37.06
2018-08-03T08:21:33.624Z,37.39
2018-08-03T08:22:34.262Z,36.66
2018-08-03T08:23:33.677Z,37.09
2018-08-03T08:24:33.669Z,37.41
2018-08-03T08:25:33.685Z,38.01
2018-08-03T08:26:33.709Z,38.34
2018-08-03T08:27:34.271Z,37.93
2018-08-03T08:28:33.751Z,37.79
2018-08-03T08:29:33.756Z,38.26
2018-08-03T08:30:33.778Z,39.01
2018-08-03T08:31:33.871Z,38.98
2018-08-03T08:32:33.808Z,39.41
2018-08-03T08:33:33.894Z,39.50
2018-08-03T08:34:33.886Z,39.29
2018-08-03T08:35:33.883Z,39.47
2018-08-03T08:36:33.886Z,39.52
2018-08-03T08:37:33.922Z,38.60
2018-08-03T08:38:33.937Z,38.86
2018-08-03T08:39:33.956Z,37.76
2018-08-03T08:40:33.981Z,38.11
2018-08-03T08:41:33.996Z,38.37
2018-08-03T08:42:34.007Z,38.07
2018-08-03T08:43:34.080Z,38.56
2018-08-03T08:44:34.045Z,39.06
2018-08-03T08:45:34.077Z,38.25
2018-08-03T08:46:34.095Z,38.66
2018-08-03T08:47:34.777Z,38.75
2018-08-03T08:48:34.161Z,38.49
2018-08-03T08:49:34.146Z,39.04
2018-08-03T08:50:34.204Z,37.94
2018-08-03T08:51:34.187Z,38.32
2018-08-03T08:52:34.227Z,38.71
2018-08-03T08:53:34.238Z,38.75
2018-08-03T08:54:34.306Z,38.74
2018-08-03T08:55:34.276Z,38.99
2018-08-03T08:56:34.682Z,38.06
2018-08-03T08:57:34.497Z,38.20
2018-08-03T08:58:34.456Z,38.22
2018-08-03T08:59:34.373Z,38.60
2018-08-03T09:00:36.559Z,39.22
2018-08-03T09:01:34.524Z,39.62
2018-08-03T09:02:34.439Z,39.25
2018-08-03T09:03:34.762Z,38.06
2018-08-03T09:04:34.438Z,38.13
2018-08-03T09:05:34.463Z,38.49
2018-08-03T09:06:34.492Z,38.50
2018-08-03T09:07:34.833Z,38.56
2018-08-03T09:08:34.584Z,38.88
2018-08-03T09:09:34.540Z,38.90
2018-08-03T09:10:34.573Z,38.32
2018-08-03T09:11:35.497Z,38.52
2018-08-03T09:12:34.730Z,39.18
2018-08-03T09:13:34.641Z,39.66
2018-08-03T09:14:34.642Z,39.01
2018-08-03T09:15:34.678Z,39.10
2018-08-03T09:16:34.688Z,38.61
2018-08-03T09:17:34.705Z,39.41
2018-08-03T09:18:34.778Z,39.50
2018-08-03T09:19:34.750Z,39.44
2018-08-03T09:20:34.807Z,39.01
2018-08-03T09:21:36.374Z,38.52
2018-08-03T09:22:35.581Z,39.06
2018-08-03T09:23:35.944Z,39.40
2018-08-03T09:24:35.857Z,39.30
2018-08-03T09:25:34.889Z,39.11
2018-08-03T09:26:34.896Z,38.57
2018-08-03T09:27:34.935Z,38.86
2018-08-03T09:28:34.962Z,38.52
2018-08-03T09:29:34.997Z,38.13
2018-08-03T09:30:34.995Z,38.57
2018-08-03T09:31:35.051Z,39.06
2018-08-03T09:32:35.801Z,39.45
2018-08-03T09:33:37.905Z,39.28
2018-08-03T09:34:35.801Z,38.52
2018-08-03T09:35:35.099Z,38.98
2018-08-03T09:36:35.176Z,39.30
2018-08-03T09:37:35.201Z,38.52
2018-08-03T09:38:35.170Z,38.91
2018-08-03T09:39:35.803Z,39.25
2018-08-03T09:40:35.259Z,40.22
2018-08-03T09:41:35.262Z,40.53
2018-08-03T09:42:35.276Z,39.96
2018-08-03T09:43:35.808Z,39.86
2018-08-03T09:44:35.301Z,39.82
2018-08-03T09:45:39.267Z,39.82
2018-08-03T09:48:07.633Z,38.50
2018-08-03T09:49:07.585Z,38.35
2018-08-03T09:50:08.453Z,39.28
2018-08-03T09:51:07.554Z,39.70
2018-08-03T09:52:07.576Z,39.26
2018-08-03T09:53:07.606Z,39.14
2018-08-03T09:54:07.680Z,38.53
2018-08-03T09:55:07.682Z,38.09
2018-08-03T09:56:07.747Z,38.28
2018-08-03T09:57:07.718Z,38.50
2018-08-03T09:58:07.728Z,38.30
2018-08-03T09:59:07.741Z,38.12
2018-08-03T10:00:07.773Z,38.71
2018-08-03T10:01:07.791Z,38.63
2018-08-03T10:02:07.870Z,38.44
2018-08-03T10:03:07.837Z,38.15
2018-08-03T10:04:07.861Z,38.59
2018-08-03T10:05:07.929Z,39.21
2018-08-03T10:06:07.994Z,39.07
2018-08-03T10:07:07.968Z,39.32
2018-08-03T10:08:08.013Z,38.57
2018-08-03T10:09:08.212Z,39.18
2018-08-03T10:10:08.003Z,39.26
2018-08-03T10:11:08.048Z,39.10
2018-08-03T10:12:08.103Z,39.72
2018-08-03T10:13:08.068Z,39.78
2018-08-03T10:14:08.164Z,40.03
2018-08-03T10:15:08.138Z,39.50
2018-08-03T10:16:08.162Z,39.32
2018-08-03T10:17:08.202Z,39.82
2018-08-03T10:18:08.226Z,40.03
2018-08-03T10:19:08.254Z,40.08
2018-08-03T10:20:08.238Z,39.48
2018-08-03T10:21:08.271Z,39.07
2018-08-03T10:22:08.406Z,39.10
2018-08-03T10:23:08.317Z,39.72
2018-08-03T10:24:08.331Z,39.89
2018-08-03T10:25:08.382Z,39.94
2018-08-03T10:26:08.408Z,40.60
2018-08-03T10:27:08.427Z,40.98
2018-08-03T10:28:08.470Z,41.32
2018-08-03T10:29:08.472Z,41.14
2018-08-03T10:30:08.497Z,40.83
2018-08-03T10:31:08.506Z,41.08
2018-08-03T10:32:09.480Z,41.44
2018-08-03T10:33:08.561Z,41.25
2018-08-03T10:34:08.579Z,41.04
2018-08-03T10:35:08.699Z,40.92
2018-08-03T10:36:08.634Z,40.91
2018-08-03T10:37:08.647Z,41.02
2018-08-03T10:38:08.690Z,40.98
2018-08-03T10:39:08.701Z,40.29
2018-08-03T10:40:08.745Z,39.64
2018-08-03T10:41:08.748Z,39.45
2018-08-03T10:42:08.790Z,39.63
2018-08-03T10:43:08.827Z,39.09
2018-08-03T10:44:09.481Z,39.14
2018-08-03T10:45:08.861Z,39.72
2018-08-03T10:46:08.876Z,40.19
2018-08-03T10:47:08.967Z,40.00
2018-08-03T10:48:08.925Z,39.67
2018-08-03T10:49:08.949Z,39.57
2018-08-03T10:50:08.969Z,39.51
2018-08-03T10:51:08.995Z,39.03
2018-08-03T10:52:09.023Z,39.21
2018-08-03T10:53:09.059Z,39.52
2018-08-03T10:54:09.987Z,39.86
2018-08-03T10:55:09.095Z,39.97
2018-08-03T10:56:09.108Z,39.84
2018-08-03T10:57:09.548Z,39.28
2018-08-03T10:58:09.191Z,39.63
2018-08-03T10:59:10.101Z,39.66
2018-08-03T11:00:09.207Z,39.52
2018-08-03T11:01:09.233Z,39.52
2018-08-03T11:02:09.577Z,39.11
2018-08-03T11:03:10.001Z,38.59
2018-08-03T11:04:09.711Z,38.57
2018-08-03T11:05:09.306Z,38.18
2018-08-03T11:06:09.336Z,38.07
2018-08-03T11:07:09.350Z,37.72
2018-08-03T11:08:09.371Z,37.02
2018-08-03T11:09:09.437Z,36.99
2018-08-03T11:10:09.405Z,36.69
2018-08-03T11:11:09.431Z,36.95
2018-08-03T11:12:09.456Z,37.18
2018-08-03T11:13:09.466Z,37.43
2018-08-03T11:14:09.525Z,37.67
2018-08-03T11:15:09.506Z,37.60
2018-08-03T11:16:09.520Z,37.76
2018-08-03T11:17:09.533Z,37.69
2018-08-03T11:18:09.585Z,37.62
2018-08-03T11:19:09.567Z,37.57
2018-08-03T11:20:11.570Z,37.70
2018-08-03T11:21:10.504Z,37.70
2018-08-03T11:22:09.618Z,37.70
2018-08-03T11:23:09.634Z,38.00
2018-08-03T11:24:09.769Z,37.91
2018-08-03T11:25:10.505Z,37.93
2018-08-03T11:26:09.686Z,38.07
2018-08-03T11:27:09.715Z,38.09
2018-08-03T11:28:09.727Z,37.89
2018-08-03T11:29:09.738Z,37.84
2018-08-03T11:30:09.754Z,37.57
2018-08-03T11:31:10.515Z,37.78
2018-08-03T11:32:09.776Z,37.76
2018-08-03T11:33:09.795Z,37.57
2018-08-03T11:34:09.804Z,36.88
2018-08-03T11:35:10.073Z,36.34
2018-08-03T11:36:09.903Z,36.28
2018-08-03T11:37:09.901Z,35.99
2018-08-03T11:38:09.863Z,36.03
2018-08-03T11:39:09.923Z,36.37
2018-08-03T11:40:09.897Z,36.35
2018-08-03T11:41:09.928Z,36.64
2018-08-03T11:42:09.929Z,36.94
2018-08-03T11:43:09.944Z,36.59
2018-08-03T11:44:09.962Z,36.76
2018-08-03T11:45:10.005Z,37.02
2018-08-03T11:46:11.021Z,36.76
2018-08-03T11:47:10.011Z,36.94
2018-08-03T11:48:10.013Z,37.02
2018-08-03T11:49:10.013Z,36.93
2018-08-03T11:50:10.071Z,37.05
2018-08-03T11:51:10.064Z,37.44
2018-08-03T11:52:10.083Z,37.29
2018-08-03T11:53:10.105Z,37.28
2018-08-03T11:54:10.119Z,37.32
2018-08-03T11:55:10.104Z,37.34
2018-08-03T11:56:11.027Z,37.28
2018-08-03T11:57:10.140Z,37.10
2018-08-03T11:58:10.141Z,37.18
2018-08-03T11:59:10.158Z,37.03
2018-08-03T12:00:10.182Z,37.03
2018-08-03T12:01:10.184Z,36.95
2018-08-03T12:02:10.225Z,36.72
2018-08-03T12:03:10.222Z,36.71
2018-08-03T12:04:10.228Z,36.50
2018-08-03T12:05:11.035Z,36.72
2018-08-03T12:06:10.347Z,36.76
2018-08-03T12:07:10.256Z,36.83
2018-08-03T12:08:10.274Z,36.81
2018-08-03T12:09:10.319Z,36.66
2018-08-03T12:10:10.300Z,36.85
2018-08-03T12:11:10.334Z,37.07
2018-08-03T12:12:10.331Z,37.15
2018-08-03T12:13:10.345Z,37.25
2018-08-03T12:14:10.358Z,37.22
2018-08-03T12:15:10.366Z,37.28
2018-08-03T12:16:10.486Z,37.32
2018-08-03T12:17:10.388Z,37.02
2018-08-03T12:18:10.403Z,36.85
2018-08-03T12:19:10.439Z,37.05
2018-08-03T12:20:10.464Z,36.83
2018-08-03T12:21:10.452Z,36.69
2018-08-03T12:22:10.465Z,36.43
2018-08-03T12:23:10.470Z,36.35
2018-08-03T12:24:10.542Z,36.38
2018-08-03T12:25:10.490Z,36.57
2018-08-03T12:26:10.524Z,36.76
2018-08-03T12:27:10.511Z,36.93
2018-08-03T12:28:10.535Z,37.05
2018-08-03T12:29:10.565Z,37.03
2018-08-03T12:30:10.554Z,37.18
2018-08-03T12:31:10.601Z,36.93
2018-08-03T12:32:10.604Z,36.88
2018-08-03T12:33:10.585Z,37.06
2018-08-03T12:34:11.549Z,36.99
2018-08-03T12:35:10.640Z,37.10
2018-08-03T12:36:10.623Z,37.03
2018-08-03T12:37:10.710Z,37.20
2018-08-03T12:38:10.672Z,37.25
2018-08-03T12:39:10.671Z,37.34
2018-08-03T12:40:10.676Z,37.49
2018-08-03T12:41:10.695Z,37.60
2018-08-03T12:42:10.708Z,37.55
2018-08-03T12:43:10.726Z,37.24
2018-08-03T12:44:11.555Z,37.22
2018-08-03T12:45:10.803Z,37.03
2018-08-03T12:46:10.824Z,37.07
2018-08-03T12:47:10.779Z,36.87
2018-08-03T12:48:10.802Z,36.54
2018-08-03T12:49:10.787Z,36.62
2018-08-03T12:50:10.819Z,36.66
2018-08-03T12:51:10.813Z,36.84
2018-08-03T12:52:10.826Z,36.85
2018-08-03T12:53:10.832Z,36.93
2018-08-03T12:54:11.034Z,37.06
2018-08-03T12:55:10.869Z,37.06
2018-08-03T12:56:10.878Z,37.07